createdAt,value
2022-11-22T00:02:22.367Z,76.99
2022-11-22T00:05:16.605Z,76.57
2022-11-22T00:08:11.705Z,74.81
2022-11-22T00:11:08.729Z,73.75
2022-11-22T00:13:51.152Z,73.29
2022-11-22T00:16:46.593Z,71.58
2022-11-22T00:19:28.984Z,73.10
2022-11-22T00:22:06.838Z,72.06
2022-11-22T00:25:06.389Z,72.69
2022-11-22T00:33:58.909Z,72.79
2022-11-22T00:36:59.745Z,72.28
2022-11-22T00:39:38.941Z,71.00
2022-11-22T00:45:42.836Z,69.33
2022-11-22T00:48:25.623Z,68.69
2022-11-22T00:51:03.649Z,68.50
2022-11-22T00:53:41.759Z,68.76
2022-11-22T00:56:18.747Z,68.80
2022-11-22T00:59:20.970Z,67.78
2022-11-22T01:01:57.354Z,67.79
2022-11-22T01:04:38.518Z,65.98
2022-11-22T01:10:46.424Z,65.03
2022-11-22T01:13:47.639Z,64.18
2022-11-22T01:16:41.465Z,64.63
2022-11-22T01:19:24.433Z,64.99
2022-11-22T01:22:10.098Z,64.62
2022-11-22T01:24:52.186Z,65.15
2022-11-22T01:27:44.146Z,64.65
2022-11-22T01:30:40.812Z,62.87
2022-11-22T01:33:34.942Z,65.54
2022-11-22T01:36:21.537Z,66.77
2022-11-22T01:39:07.701Z,67.53
2022-11-22T01:41:47.500Z,67.80
2022-11-22T01:44:35.027Z,68.93
2022-11-22T01:47:21.198Z,69.84
2022-11-22T01:50:20.295Z,68.31
2022-11-22T01:53:29.920Z,68.30
2022-11-22T01:56:23.067Z,68.85
2022-11-22T01:59:14.112Z,68.37
2022-11-22T02:01:56.351Z,67.59
2022-11-22T02:04:57.339Z,67.55
2022-11-22T02:08:00.437Z,67.15
2022-11-22T02:10:55.656Z,67.40
2022-11-22T02:13:50.877Z,67.44
2022-11-22T02:16:44.569Z,66.78
2022-11-22T02:19:59.256Z,66.50
2022-11-22T02:23:17.926Z,66.50
2022-11-22T02:26:20.239Z,66.26
2022-11-22T02:29:01.369Z,65.18
2022-11-22T02:31:56.809Z,65.01
2022-11-22T02:34:45.338Z,64.94
2022-11-22T02:37:24.781Z,64.68
2022-11-22T02:40:16.871Z,64.72
2022-11-22T02:43:26.214Z,65.66
2022-11-22T02:46:54.256Z,66.69
2022-11-22T02:52:49.546Z,67.89
2022-11-22T02:56:06.766Z,67.63
2022-11-22T02:59:11.565Z,68.18
2022-11-22T03:02:03.491Z,69.77
2022-11-22T03:04:43.345Z,69.80
2022-11-22T03:07:22.475Z,70.54
2022-11-22T03:12:55.506Z,72.60
2022-11-22T03:15:41.153Z,74.21
2022-11-22T03:18:35.855Z,74.00
2022-11-22T03:24:16.450Z,72.28
2022-11-22T03:26:55.165Z,73.38
2022-11-22T03:33:00.550Z,74.06
2022-11-22T03:35:40.008Z,74.00
2022-11-22T03:38:32.818Z,73.78
2022-11-22T03:41:12.826Z,72.82
2022-11-22T03:43:48.018Z,73.71
2022-11-22T03:46:27.629Z,73.96
2022-11-22T03:49:14.911Z,73.61
2022-11-22T03:52:10.326Z,73.97
2022-11-22T03:55:03.782Z,75.39
2022-11-22T03:57:48.421Z,77.53
2022-11-22T04:00:38.708Z,78.91
2022-11-22T04:03:20.424Z,79.58
2022-11-22T04:06:35.647Z,78.95
2022-11-22T04:12:04.562Z,77.84
2022-11-22T04:15:00.407Z,77.86
2022-11-22T04:17:55.286Z,76.93
2022-11-22T04:20:51.138Z,77.44
2022-11-22T04:23:37.829Z,78.02
2022-11-22T04:26:19.400Z,78.10
2022-11-22T04:29:09.359Z,77.75
2022-11-22T04:32:12.046Z,77.14
2022-11-22T04:35:10.593Z,76.47
2022-11-22T04:37:46.902Z,76.49
2022-11-22T04:40:36.105Z,75.74
2022-11-22T04:43:34.748Z,75.56
2022-11-22T04:46:23.027Z,75.27
2022-11-22T04:52:18.121Z,73.81
2022-11-22T04:55:08.148Z,74.80
2022-11-22T04:58:41.663Z,75.25
2022-11-22T05:01:28.876Z,74.76
2022-11-22T05:04:07.326Z,74.06
2022-11-22T05:07:05.285Z,73.43
2022-11-22T05:09:49.398Z,74.15
2022-11-22T05:12:29.903Z,74.04
2022-11-22T05:15:37.023Z,74.38
2022-11-22T05:18:14.846Z,73.73
2022-11-22T05:20:53.346Z,72.70
2022-11-22T05:23:46.334Z,73.80
2022-11-22T05:26:33.418Z,74.70
2022-11-22T05:32:18.195Z,75.51
2022-11-22T05:35:01.491Z,75.40
2022-11-22T05:38:09.252Z,76.45
2022-11-22T05:40:51.604Z,76.31
2022-11-22T05:43:30.453Z,76.83
2022-11-22T05:46:25.167Z,77.53
2022-11-22T05:49:05.738Z,77.25
2022-11-22T05:51:46.944Z,76.81
2022-11-22T06:00:25.413Z,77.53
2022-11-22T06:03:11.756Z,77.87
2022-11-22T06:06:01.566Z,78.56
2022-11-22T06:09:00.264Z,78.84
2022-11-22T06:12:06.137Z,79.63
2022-11-22T06:17:33.214Z,78.86
2022-11-22T06:20:13.095Z,79.26
2022-11-22T06:23:11.673Z,79.47
2022-11-22T06:25:55.768Z,79.53
2022-11-22T06:28:36.402Z,79.38
2022-11-22T06:31:18.813Z,78.45
2022-11-22T06:34:01.516Z,76.32
2022-11-22T06:37:02.634Z,76.01
2022-11-22T06:39:49.556Z,76.00
2022-11-22T06:42:32.475Z,75.58
2022-11-22T06:45:37.224Z,75.79
2022-11-22T06:48:31.178Z,75.65
2022-11-22T06:51:09.112Z,74.44
2022-11-22T06:53:49.460Z,72.70
2022-11-22T06:56:38.018Z,72.06
2022-11-22T06:59:21.413Z,69.33
2022-11-22T07:02:04.530Z,70.68
2022-11-22T07:05:02.647Z,71.46
2022-11-22T07:08:10.402Z,71.38
2022-11-22T07:10:56.706Z,71.34
2022-11-22T07:14:11.388Z,71.67
2022-11-22T07:20:08.928Z,70.78
2022-11-22T07:22:53.659Z,70.92
2022-11-22T07:25:47.476Z,71.35
2022-11-22T07:28:34.986Z,72.05
2022-11-22T07:31:23.478Z,72.10
2022-11-22T07:34:03.264Z,72.00
2022-11-22T07:36:59.716Z,72.13
2022-11-22T07:39:58.708Z,71.93
2022-11-22T07:42:37.381Z,71.39
2022-11-22T07:45:23.691Z,69.97
2022-11-22T07:48:14.562Z,70.66
2022-11-22T07:53:54.627Z,67.56
2022-11-22T07:56:37.025Z,67.89
2022-11-22T07:59:18.778Z,68.07
2022-11-22T08:02:01.658Z,68.55
2022-11-22T08:04:49.246Z,68.28
2022-11-22T08:07:34.366Z,69.09
2022-11-22T08:10:38.670Z,68.71
2022-11-22T08:13:35.389Z,68.88
2022-11-22T08:16:39.443Z,66.17
2022-11-22T08:22:18.633Z,67.01
2022-11-22T08:25:22.759Z,66.38
2022-11-22T08:28:13.833Z,67.84
2022-11-22T08:31:14.743Z,67.56
2022-11-22T08:34:13.383Z,68.43
2022-11-22T08:36:53.875Z,69.00
2022-11-22T08:39:48.032Z,68.99
2022-11-22T08:42:30.668Z,69.33
2022-11-22T08:45:25.547Z,70.63
2022-11-22T08:48:07.195Z,72.13
2022-11-22T08:50:52.629Z,72.86
2022-11-22T08:53:29.115Z,73.97
2022-11-22T08:56:35.743Z,74.13
2022-11-22T08:59:16.831Z,74.37
2022-11-22T09:02:36.336Z,75.10
2022-11-22T09:05:28.420Z,76.30
2022-11-22T09:08:40.386Z,76.96
2022-11-22T09:11:36.663Z,77.51
2022-11-22T09:17:37.093Z,78.09
2022-11-22T09:20:32.063Z,78.91
2022-11-22T09:23:13.796Z,79.35
2022-11-22T09:25:56.267Z,78.78
2022-11-22T09:28:42.564Z,78.37
2022-11-22T09:31:26.177Z,78.36
2022-11-22T09:34:05.902Z,78.93
2022-11-22T09:36:50.136Z,79.52
2022-11-22T09:39:35.527Z,79.24
2022-11-22T09:43:01.964Z,78.57
2022-11-22T09:46:32.578Z,78.34
2022-11-22T09:49:33.288Z,78.31
2022-11-22T09:52:42.013Z,78.81
2022-11-22T09:55:36.979Z,79.01
2022-11-22T09:58:42.746Z,78.21
2022-11-22T10:01:41.190Z,78.39
2022-11-22T10:04:25.322Z,77.88
2022-11-22T10:07:28.351Z,77.88
2022-11-22T10:10:27.858Z,77.82
2022-11-22T10:13:55.751Z,79.17
2022-11-22T10:16:41.579Z,79.85
2022-11-22T10:19:29.210Z,80.28
2022-11-22T10:22:09.858Z,81.04
2022-11-22T10:25:01.108Z,81.23
2022-11-22T10:28:00.348Z,81.72
2022-11-22T10:30:46.717Z,81.48
2022-11-22T10:33:59.635Z,81.53
2022-11-22T10:36:52.131Z,80.87
2022-11-22T10:40:01.775Z,80.93
2022-11-22T10:43:04.292Z,81.35
2022-11-22T10:45:55.815Z,81.92
2022-11-22T10:48:51.802Z,82.45
2022-11-22T10:51:44.687Z,82.48
2022-11-22T10:54:42.662Z,82.74
2022-11-22T10:57:27.284Z,82.18
2022-11-22T11:00:37.812Z,82.09
2022-11-22T11:03:33.395Z,82.51
2022-11-22T11:06:43.667Z,82.84
2022-11-22T11:13:07.236Z,82.63
2022-11-22T11:15:56.424Z,82.25
2022-11-22T11:18:40.302Z,82.04
2022-11-22T11:21:26.387Z,81.68
2022-11-22T11:24:10.439Z,81.52
2022-11-22T11:26:56.556Z,81.79
2022-11-22T11:29:52.451Z,81.25
2022-11-22T11:32:50.675Z,81.11
2022-11-22T11:35:49.058Z,81.05
2022-11-22T11:38:55.220Z,80.96
2022-11-22T11:44:42.542Z,81.11
2022-11-22T11:47:28.682Z,81.07
2022-11-22T11:50:24.998Z,81.46
2022-11-22T11:53:44.703Z,81.89
2022-11-22T12:00:04.603Z,81.53
2022-11-22T12:02:51.575Z,81.18
2022-11-22T12:05:38.892Z,81.34
2022-11-22T12:08:43.024Z,81.63
2022-11-22T12:11:31.804Z,80.32
2022-11-22T12:14:20.247Z,79.46
2022-11-22T12:17:24.292Z,79.65
2022-11-22T12:20:16.456Z,80.03
2022-11-22T12:23:35.653Z,80.15
2022-11-22T12:26:35.716Z,78.24
2022-11-22T12:29:29.008Z,77.47
2022-11-22T12:35:34.681Z,77.29
2022-11-22T12:38:23.510Z,76.84
2022-11-22T12:41:17.558Z,77.07
2022-11-22T12:43:57.371Z,76.76
2022-11-22T12:47:15.583Z,77.34
2022-11-22T12:53:05.102Z,77.33
2022-11-22T12:56:00.181Z,77.29
2022-11-22T12:59:13.605Z,76.82
2022-11-22T13:01:58.058Z,76.43
2022-11-22T13:05:00.989Z,76.40
2022-11-22T13:08:04.558Z,76.12
2022-11-22T13:10:55.852Z,76.62
2022-11-22T13:13:44.947Z,77.34
2022-11-22T13:16:20.912Z,77.66
2022-11-22T13:19:06.981Z,77.72
2022-11-22T13:21:57.343Z,78.63
2022-11-22T13:25:02.420Z,78.51
2022-11-22T13:27:52.468Z,78.58
2022-11-22T13:30:41.248Z,78.70
2022-11-22T13:33:34.196Z,78.12
2022-11-22T13:36:39.029Z,78.71
2022-11-22T13:39:39.298Z,78.81
2022-11-22T13:42:30.080Z,78.81
2022-11-22T13:45:34.692Z,78.14
2022-11-22T13:48:26.697Z,77.48
2022-11-22T13:51:24.747Z,76.65
2022-11-22T13:54:50.213Z,77.12
2022-11-22T13:57:50.892Z,77.36
2022-11-22T14:01:02.073Z,76.98
2022-11-22T14:03:58.768Z,77.18
2022-11-22T14:06:44.130Z,77.52
2022-11-22T14:09:52.682Z,77.84
2022-11-22T14:13:08.701Z,77.44
2022-11-22T14:16:27.577Z,77.12
2022-11-22T14:19:36.751Z,77.41
2022-11-22T14:22:32.648Z,77.72
2022-11-22T14:25:43.224Z,78.31
2022-11-22T14:28:47.581Z,78.47
2022-11-22T14:31:31.331Z,78.45
2022-11-22T14:34:35.440Z,79.18
2022-11-22T14:37:47.673Z,78.94
2022-11-22T14:40:54.837Z,79.08
2022-11-22T14:43:44.920Z,79.61
2022-11-22T14:46:52.695Z,79.78
2022-11-22T14:49:47.896Z,79.92
2022-11-22T14:52:30.844Z,79.75
2022-11-22T14:55:08.375Z,79.63
2022-11-22T14:58:01.772Z,80.05
2022-11-22T15:00:57.398Z,80.23
2022-11-22T15:09:23.397Z,80.86
2022-11-22T15:09:23.877Z,80.67
2022-11-22T15:11:53.334Z,80.45
2022-11-22T15:59:05.784Z,80.97
2022-11-22T16:01:57.426Z,81.05
2022-11-22T16:06:04.439Z,80.93
2022-11-22T16:08:00.953Z,81.21
2022-11-22T16:10:42.068Z,80.92
2022-11-22T16:13:40.956Z,80.91
2022-11-22T16:16:52.104Z,81.17
2022-11-22T16:19:37.423Z,81.35
2022-11-22T16:22:45.398Z,81.45
2022-11-22T16:25:37.044Z,81.45
2022-11-22T16:28:28.920Z,81.43
2022-11-22T16:31:11.679Z,81.53
2022-11-22T16:34:02.741Z,80.90
2022-11-22T16:36:52.278Z,81.38
2022-11-22T16:42:35.987Z,81.09
2022-11-22T16:45:13.985Z,81.05
2022-11-22T16:48:31.225Z,80.82
2022-11-22T16:51:20.705Z,80.84
2022-11-22T16:53:57.352Z,81.14
2022-11-22T16:56:45.642Z,81.55
2022-11-22T16:59:38.226Z,81.45
2022-11-22T17:02:44.474Z,80.19
2022-11-22T17:05:37.133Z,79.96
2022-11-22T17:08:23.263Z,80.05
2022-11-22T17:11:08.005Z,79.89
2022-11-22T17:13:54.850Z,80.21
2022-11-22T17:16:41.926Z,80.30
2022-11-22T17:22:31.871Z,80.60
2022-11-22T17:25:14.616Z,80.19
2022-11-22T17:27:55.760Z,79.65
2022-11-22T17:30:34.991Z,79.35
2022-11-22T17:33:12.578Z,79.24
2022-11-22T17:35:58.995Z,79.15
2022-11-22T17:38:43.532Z,78.99
2022-11-22T17:41:24.233Z,78.80
2022-11-22T17:44:05.179Z,78.86
2022-11-22T17:47:05.814Z,78.83
2022-11-22T17:49:42.643Z,78.81
2022-11-22T17:52:21.776Z,79.65
2022-11-22T17:55:07.607Z,79.55
2022-11-22T17:57:55.941Z,79.69
2022-11-22T18:00:37.784Z,80.20
2022-11-22T18:03:46.992Z,80.45
2022-11-22T18:06:32.757Z,80.93
2022-11-22T18:09:31.274Z,81.25
2022-11-22T18:12:26.518Z,81.09
2022-11-22T18:15:08.095Z,81.35
2022-11-22T18:17:58.062Z,81.75
2022-11-22T18:21:15.668Z,81.42
2022-11-22T18:23:53.611Z,81.13
2022-11-22T18:26:44.932Z,81.09
2022-11-22T18:29:42.255Z,80.85
2022-11-22T18:32:28.598Z,80.63
2022-11-22T18:35:11.635Z,80.98
2022-11-22T18:37:56.704Z,80.78
2022-11-22T18:40:38.140Z,80.40
2022-11-22T18:43:16.830Z,80.13
2022-11-22T18:45:52.278Z,80.62
2022-11-22T18:48:45.751Z,80.97
2022-11-22T18:51:30.490Z,81.50
2022-11-22T18:54:33.427Z,81.45
2022-11-22T18:57:21.394Z,81.55
2022-11-22T19:00:27.140Z,81.20
2022-11-22T19:03:13.637Z,81.52
2022-11-22T19:05:47.100Z,81.36
2022-11-22T19:08:28.458Z,81.95
2022-11-22T19:11:20.857Z,81.89
2022-11-22T19:14:10.814Z,81.84
2022-11-22T19:16:53.503Z,81.73
2022-11-22T19:19:31.139Z,81.56
2022-11-22T19:22:08.165Z,82.13
2022-11-22T19:24:50.430Z,82.64
2022-11-22T19:27:35.049Z,83.04
2022-11-22T19:30:17.028Z,83.20
2022-11-22T19:32:58.777Z,83.40
2022-11-22T19:35:37.497Z,83.05
2022-11-22T19:38:17.901Z,83.56
2022-11-22T19:41:06.869Z,83.50
2022-11-22T19:43:50.339Z,84.01
2022-11-22T19:46:28.256Z,83.32
2022-11-22T19:49:14.210Z,83.31
2022-11-22T19:52:08.767Z,82.92
2022-11-22T19:54:45.316Z,82.54
2022-11-22T19:57:26.694Z,82.30
2022-11-22T20:00:11.448Z,82.15
2022-11-22T20:02:58.878Z,81.86
2022-11-22T20:05:55.323Z,81.98
2022-11-22T20:08:38.660Z,81.62
2022-11-22T20:11:25.961Z,81.34
2022-11-22T20:14:12.923Z,80.70
2022-11-22T20:16:55.910Z,80.84
2022-11-22T20:19:38.689Z,80.74
2022-11-22T20:22:20.719Z,80.37
2022-11-22T20:24:59.088Z,80.78
2022-11-22T20:28:00.991Z,80.32
2022-11-22T20:30:48.730Z,80.26
2022-11-22T20:33:28.849Z,79.85
2022-11-22T20:36:22.459Z,79.96
2022-11-22T20:39:05.545Z,79.99
2022-11-22T20:42:32.516Z,80.01
2022-11-22T20:45:00.483Z,80.41
2022-11-22T20:47:37.282Z,79.91
2022-11-22T20:50:31.002Z,80.18
2022-11-22T20:53:17.913Z,80.50
2022-11-22T20:55:57.747Z,81.33
2022-11-22T20:58:49.354Z,82.58
2022-11-22T21:04:59.106Z,82.42
2022-11-22T21:07:43.183Z,81.93
2022-11-22T21:10:30.064Z,81.59
2022-11-22T21:13:15.971Z,81.53
2022-11-22T21:15:52.557Z,81.55
2022-11-22T21:18:33.141Z,82.66
2022-11-22T21:21:18.550Z,84.40
2022-11-22T21:24:11.805Z,84.30
2022-11-22T21:26:59.433Z,84.26
2022-11-22T21:29:38.249Z,84.59
2022-11-22T21:32:21.027Z,84.82
2022-11-22T21:35:10.573Z,85.11
2022-11-22T21:37:48.643Z,85.27
2022-11-22T21:40:34.149Z,85.40
2022-11-22T21:43:32.880Z,84.77
2022-11-22T21:46:15.951Z,84.26
2022-11-22T21:49:01.106Z,83.73
2022-11-22T21:51:58.343Z,83.17
2022-11-22T21:54:45.204Z,81.88
2022-11-22T21:57:30.554Z,80.96
2022-11-22T22:00:07.535Z,80.96
2022-11-22T22:03:11.197Z,80.79
2022-11-22T22:05:48.345Z,80.76
2022-11-22T22:08:34.340Z,80.63
2022-11-22T22:11:18.928Z,79.98
2022-11-22T22:14:04.894Z,80.11
2022-11-22T22:16:45.891Z,80.51
2022-11-22T22:19:24.565Z,80.37
2022-11-22T22:22:11.546Z,80.80
2022-11-22T22:24:57.255Z,80.34
2022-11-22T22:27:35.278Z,79.44
2022-11-22T22:30:38.612Z,79.63
2022-11-22T22:33:28.869Z,79.76
2022-11-22T22:36:18.769Z,79.83
2022-11-22T22:39:13.936Z,79.64
2022-11-22T22:42:01.310Z,80.13
2022-11-22T22:44:39.413Z,79.82
2022-11-22T22:47:25.836Z,79.73
2022-11-22T22:50:05.691Z,80.07
2022-11-22T22:53:01.720Z,79.91
2022-11-22T22:55:50.756Z,80.23
2022-11-22T22:58:39.198Z,80.54
2022-11-22T23:01:18.635Z,80.10
2022-11-22T23:04:14.388Z,79.98
2022-11-22T23:09:59.569Z,80.50
2022-11-22T23:12:51.507Z,80.01
2022-11-22T23:18:29.506Z,77.72
2022-11-22T23:21:32.059Z,76.84
2022-11-22T23:24:11.669Z,76.97
2022-11-22T23:26:56.450Z,77.57
2022-11-22T23:29:43.181Z,78.10
2022-11-22T23:32:50.357Z,77.75
2022-11-22T23:36:09.078Z,77.27
2022-11-22T23:38:49.998Z,75.44
2022-11-22T23:41:44.731Z,74.87
2022-11-22T23:44:31.368Z,75.13
2022-11-22T23:47:20.093Z,75.48
2022-11-22T23:50:04.491Z,76.11
2022-11-22T23:52:51.308Z,75.21
2022-11-22T23:55:38.118Z,74.89
2022-11-22T23:58:22.565Z,74.56
